Time;durP1;ratioP1;P1;durP2;ratioP2;P2;SDS_P1;SDS_P2;PMS_P1;PMS_P2;Temp;Humidity;BMP_temperature;BMP_pressure;BME280_temperature;BME280_humidity;BME280_pressure;Samples;Min_cycle;Max_cycle;Signal;HPM_P1;HPM_P2
2021/03/31 02:46:34;;;;;;;16.42;8.60;;;12.50;59.70;;;;;;5221768;24;20056;-68
2021/03/31 02:49:00;;;;;;;23.27;8.75;;;12.50;59.60;;;;;;4753007;30;20029;-70
2021/03/31 02:51:32;;;;;;;15.70;7.82;;;12.40;59.60;;;;;;4751163;30;20028;-71
2021/03/31 02:54:00;;;;;;;15.00;8.20;;;12.50;59.80;;;;;;4753634;30;20028;-71
2021/03/31 02:56:27;;;;;;;16.73;7.97;;;12.40;59.80;;;;;;4747888;30;20208;-71
2021/03/31 02:58:53;;;;;;;21.05;9.23;;;12.40;60.30;;;;;;4745008;30;20033;-71
2021/03/31 03:01:19;;;;;;;19.75;8.38;;;12.30;60.30;;;;;;4744482;30;20038;-71
2021/03/31 03:03:48;;;;;;;13.88;8.27;;;12.30;60.30;;;;;;4748401;30;20028;-71
2021/03/31 03:06:14;;;;;;;23.52;9.25;;;12.30;60.30;;;;;;4761373;30;20042;-71
2021/03/31 03:08:39;;;;;;;22.95;8.23;;;12.30;60.40;;;;;;4762394;30;20036;-70
2021/03/31 03:11:05;;;;;;;17.92;7.57;;;12.20;60.50;;;;;;4750732;30;20059;-71
2021/03/31 03:13:33;;;;;;;20.35;9.20;;;12.30;60.70;;;;;;4762611;30;20099;-71
2021/03/31 03:16:00;;;;;;;17.23;8.25;;;12.20;60.90;;;;;;4761278;30;20100;-71
2021/03/31 03:18:26;;;;;;;16.33;8.55;;;12.20;61.00;;;;;;4756300;30;20071;-70
2021/03/31 03:20:52;;;;;;;19.23;8.32;;;12.20;61.10;;;;;;4753846;30;20032;-71
2021/03/31 03:23:19;;;;;;;16.75;9.32;;;12.20;61.20;;;;;;4745323;30;20223;-71
2021/03/31 03:25:47;;;;;;;16.90;8.57;;;12.10;61.50;;;;;;4744255;30;20072;-71
2021/03/31 03:28:18;;;;;;;22.33;9.68;;;12.10;61.60;;;;;;4746170;30;20034;-71
2021/03/31 03:30:45;;;;;;;14.38;8.27;;;12.10;61.90;;;;;;4750496;30;20062;-71
2021/03/31 03:33:11;;;;;;;17.58;9.30;;;12.00;62.00;;;;;;4761863;30;20036;-71
2021/03/31 03:35:37;;;;;;;19.10;9.45;;;12.00;62.00;;;;;;4761416;30;20231;-71
2021/03/31 03:38:03;;;;;;;20.67;8.57;;;12.00;62.20;;;;;;4751678;30;20208;-71
2021/03/31 03:40:29;;;;;;;16.00;8.48;;;12.00;62.30;;;;;;4763683;30;20060;-71
2021/03/31 03:42:55;;;;;;;22.00;9.00;;;11.90;62.50;;;;;;4749870;30;20069;-71
2021/03/31 03:45:23;;;;;;;19.92;9.20;;;11.90;62.50;;;;;;4761734;30;20043;-71
2021/03/31 03:47:49;;;;;;;14.90;8.40;;;11.90;62.60;;;;;;4761663;30;20060;-71
2021/03/31 03:50:16;;;;;;;16.42;8.68;;;11.90;62.80;;;;;;4760961;30;20028;-71
2021/03/31 03:52:48;;;;;;;15.27;8.80;;;11.90;63.00;;;;;;4761928;30;20032;-71
2021/03/31 03:55:22;;;;;;;15.23;8.57;;;11.90;62.90;;;;;;4743633;30;20032;-71
2021/03/31 03:57:48;;;;;;;21.58;8.63;;;11.90;63.10;;;;;;4758394;30;20033;-71
2021/03/31 04:00:34;;;;;;;13.88;7.82;;;11.90;63.00;;;;;;4758215;30;20091;-71
2021/03/31 04:03:00;;;;;;;29.33;8.83;;;11.80;63.00;;;;;;4744513;30;20306;-71
2021/03/31 04:05:26;;;;;;;15.13;7.85;;;11.80;63.20;;;;;;4743457;30;20289;-71
2021/03/31 04:07:54;;;;;;;13.95;8.02;;;11.80;63.10;;;;;;4758300;30;20051;-70
2021/03/31 04:10:25;;;;;;;13.95;7.82;;;11.80;63.30;;;;;;4746340;30;20055;-71
2021/03/31 04:12:53;;;;;;;19.13;9.13;;;11.80;63.50;;;;;;4753359;30;20051;-71
2021/03/31 04:15:20;;;;;;;15.95;8.20;;;11.80;63.70;;;;;;4775328;30;20066;-72
2021/03/31 04:17:47;;;;;;;15.57;8.32;;;11.80;63.60;;;;;;4755117;30;20086;-71
2021/03/31 04:20:15;;;;;;;15.93;8.40;;;11.80;63.60;;;;;;4758253;30;20037;-71
2021/03/31 04:22:41;;;;;;;20.20;8.85;;;11.70;63.90;;;;;;4758178;30;20044;-71
2021/03/31 04:25:09;;;;;;;17.52;8.57;;;11.70;63.80;;;;;;4758175;30;20268;-71
2021/03/31 04:27:36;;;;;;;18.13;8.23;;;11.70;63.90;;;;;;4744347;30;20189;-71
2021/03/31 04:30:12;;;;;;;17.02;8.02;;;11.70;63.90;;;;;;4745407;30;20037;-71
2021/03/31 04:32:44;;;;;;;16.95;7.15;;;11.60;64.30;;;;;;4755122;30;20025;-71
2021/03/31 04:35:11;;;;;;;16.60;7.47;;;11.60;64.50;;;;;;4769118;30;20036;-71
2021/03/31 04:37:37;;;;;;;15.32;8.30;;;11.60;64.40;;;;;;4756898;30;20035;-71
2021/03/31 04:40:10;;;;;;;25.55;9.32;;;11.60;64.40;;;;;;4752201;30;20312;-71
2021/03/31 04:42:36;;;;;;;18.15;8.50;;;11.60;64.60;;;;;;4757272;30;20058;-69
2021/03/31 04:45:03;;;;;;;20.85;9.73;;;11.60;64.60;;;;;;4757695;30;20036;-69
2021/03/31 04:47:28;;;;;;;18.45;8.13;;;11.50;64.70;;;;;;4752033;30;20431;-70
2021/03/31 04:49:54;;;;;;;28.30;10.57;;;11.50;64.90;;;;;;4751685;30;20051;-69
2021/03/31 04:52:20;;;;;;;25.02;9.10;;;11.60;65.00;;;;;;4767623;30;20079;-69
2021/03/31 04:54:45;;;;;;;21.65;9.02;;;11.50;65.00;;;;;;4749453;30;20040;-69
2021/03/31 04:57:11;;;;;;;21.00;9.40;;;11.50;65.00;;;;;;4754477;30;20063;-70
2021/03/31 04:59:37;;;;;;;17.83;7.78;;;11.50;65.00;;;;;;4753796;30;20036;-69
2021/03/31 05:02:03;;;;;;;16.33;8.00;;;11.50;65.00;;;;;;4754982;30;20059;-69
2021/03/31 05:04:29;;;;;;;27.33;9.45;;;11.50;65.20;;;;;;4757376;30;20269;-69
2021/03/31 05:06:54;;;;;;;24.08;9.32;;;11.50;65.30;;;;;;4754159;30;20060;-69
2021/03/31 05:09:20;;;;;;;21.20;9.07;;;11.50;65.50;;;;;;4769104;30;20036;-69
2021/03/31 05:11:46;;;;;;;25.75;9.80;;;11.60;65.70;;;;;;4751003;30;20029;-69
2021/03/31 05:14:11;;;;;;;20.95;9.32;;;11.60;65.80;;;;;;4756319;30;20020;-69
2021/03/31 05:16:37;;;;;;;21.67;8.98;;;11.60;65.60;;;;;;4758671;30;20047;-69
2021/03/31 05:19:03;;;;;;;23.55;9.27;;;11.60;65.80;;;;;;4760138;30;20309;-69
2021/03/31 05:21:28;;;;;;;22.05;8.38;;;11.70;65.80;;;;;;4755612;30;20036;-69
2021/03/31 05:23:54;;;;;;;18.95;9.38;;;11.70;66.10;;;;;;4758170;30;20028;-69
2021/03/31 05:26:20;;;;;;;24.08;8.85;;;11.80;66.60;;;;;;4755393;30;20036;-69
2021/03/31 05:28:46;;;;;;;23.35;8.77;;;11.80;66.50;;;;;;4757608;30;20036;-69
2021/03/31 05:31:11;;;;;;;20.08;9.40;;;11.80;66.80;;;;;;4749247;30;20029;-69
2021/03/31 05:33:37;;;;;;;25.77;9.50;;;11.90;66.70;;;;;;4760826;30;20037;-69
2021/03/31 05:36:03;;;;;;;23.25;10.55;;;12.00;66.60;;;;;;4752830;30;20031;-69
2021/03/31 05:38:29;;;;;;;24.27;10.25;;;12.10;65.90;;;;;;4769080;30;20040;-70
2021/03/31 05:40:59;;;;;;;28.38;10.55;;;12.10;65.80;;;;;;4751922;30;20024;-70
2021/03/31 05:43:24;;;;;;;18.58;9.82;;;12.20;65.80;;;;;;4757179;30;20054;-70
2021/03/31 05:45:53;;;;;;;18.25;8.15;;;12.30;65.50;;;;;;4749926;30;20115;-70
2021/03/31 05:48:19;;;;;;;24.90;10.68;;;12.40;65.40;;;;;;4763313;30;20047;-69
2021/03/31 05:50:45;;;;;;;20.67;9.13;;;12.50;65.60;;;;;;4750576;30;20033;-69
2021/03/31 05:53:11;;;;;;;25.30;9.73;;;12.50;65.60;;;;;;4756293;30;20029;-69
2021/03/31 05:55:37;;;;;;;20.95;9.25;;;12.60;65.20;;;;;;4752942;30;20126;-69
2021/03/31 05:58:03;;;;;;;23.08;10.52;;;12.70;65.30;;;;;;4756644;30;20050;-70
2021/03/31 06:00:29;;;;;;;16.58;9.63;;;12.70;64.90;;;;;;4751861;30;20095;-69
2021/03/31 06:02:55;;;;;;;35.00;11.60;;;12.70;64.30;;;;;;4745752;30;20102;-69
2021/03/31 06:05:21;;;;;;;24.95;8.80;;;12.80;63.90;;;;;;4745809;30;20060;-69
2021/03/31 06:07:49;;;;;;;23.98;9.65;;;12.80;63.60;;;;;;4756127;30;20082;-69
2021/03/31 06:10:19;;;;;;;19.60;9.52;;;12.90;63.50;;;;;;4770893;30;20055;-69
2021/03/31 06:13:02;;;;;;;18.25;8.52;;;13.00;63.50;;;;;;4761576;30;20055;-69
2021/03/31 06:15:33;;;;;;;30.40;8.95;;;13.00;63.80;;;;;;4743839;30;20031;-69
2021/03/31 06:18:08;;;;;;;22.95;9.13;;;13.10;63.70;;;;;;4757509;30;20032;-69
2021/03/31 06:20:50;;;;;;;26.52;9.52;;;13.10;63.90;;;;;;4751297;30;20028;-69
2021/03/31 06:26:25;;;;;;;22.27;9.18;;;13.20;63.90;;;;;;4749275;30;20212;-69
2021/03/31 06:28:58;;;;;;;31.00;10.55;;;13.30;63.50;;;;;;4758174;30;20076;-69
2021/03/31 06:31:35;;;;;;;21.27;10.27;;;13.30;63.60;;;;;;4746377;30;20039;-69
2021/03/31 06:34:16;;;;;;;20.80;9.73;;;13.30;63.10;;;;;;4751506;30;20040;-69
2021/03/31 06:36:50;;;;;;;23.88;10.45;;;13.40;63.20;;;;;;4750573;30;20025;-70
2021/03/31 06:39:32;;;;;;;24.50;10.88;;;13.50;63.60;;;;;;4754822;30;20112;-69
2021/03/31 06:42:00;;;;;;;32.90;10.48;;;13.50;63.00;;;;;;4751338;30;20143;-69
2021/03/31 06:49:49;;;;;;;24.90;12.15;;;13.80;61.70;;;;;;4744639;30;20060;-69
2021/03/31 06:52:15;;;;;;;26.33;10.20;;;13.80;61.60;;;;;;4759174;30;20040;-69
2021/03/31 06:54:49;;;;;;;26.25;9.75;;;13.90;61.80;;;;;;4753507;30;20102;-69
2021/03/31 06:57:32;;;;;;;35.10;11.88;;;14.00;61.70;;;;;;4739378;30;20032;-69
2021/03/31 07:00:08;;;;;;;25.65;11.00;;;14.00;62.30;;;;;;4756142;30;20049;-69
2021/03/31 07:02:35;;;;;;;21.03;9.77;;;14.20;62.00;;;;;;4747330;30;20333;-70
2021/03/31 07:05:03;;;;;;;22.15;10.32;;;14.30;61.10;;;;;;4759847;30;20345;-70
2021/03/31 07:07:38;;;;;;;26.95;10.80;;;14.40;60.80;;;;;;4759172;30;20055;-70
2021/03/31 07:10:14;;;;;;;25.25;10.98;;;14.50;60.40;;;;;;4743479;30;20067;-69
2021/03/31 07:12:43;;;;;;;27.20;9.98;;;14.60;60.20;;;;;;4756985;30;20396;-69
2021/03/31 07:15:10;;;;;;;32.17;11.13;;;14.60;59.60;;;;;;4757560;30;20036;-69
2021/03/31 07:17:39;;;;;;;24.42;10.85;;;14.70;58.90;;;;;;4741353;30;20085;-70
2021/03/31 07:20:06;;;;;;;29.58;10.18;;;14.80;59.10;;;;;;4738484;30;20035;-69
2021/03/31 07:22:32;;;;;;;22.40;10.70;;;14.90;58.80;;;;;;4736538;30;20059;-69
2021/03/31 07:24:58;;;;;;;25.75;11.43;;;15.00;58.60;;;;;;4748786;30;20326;-70
2021/03/31 07:27:25;;;;;;;29.48;10.85;;;15.00;57.90;;;;;;4747661;30;20028;-69
2021/03/31 07:30:05;;;;;;;30.52;11.32;;;15.20;57.40;;;;;;4750083;30;20372;-69
2021/03/31 07:32:37;;;;;;;23.52;10.32;;;15.30;58.30;;;;;;4762286;30;20182;-70
2021/03/31 07:35:04;;;;;;;21.83;11.20;;;15.40;57.80;;;;;;4749321;30;20040;-69
2021/03/31 07:37:31;;;;;;;30.00;11.73;;;15.60;57.70;;;;;;4751058;30;20091;-69
2021/03/31 07:40:03;;;;;;;30.08;12.30;;;15.70;56.30;;;;;;4751974;30;20037;-70
2021/03/31 07:42:29;;;;;;;33.55;12.45;;;15.80;56.20;;;;;;4762109;30;20033;-70
2021/03/31 07:44:59;;;;;;;36.97;12.20;;;15.90;56.20;;;;;;4746633;30;20150;-69
2021/03/31 07:47:26;;;;;;;25.40;10.40;;;16.00;56.40;;;;;;4761593;30;20107;-70
2021/03/31 07:49:53;;;;;;;30.65;11.80;;;16.10;56.40;;;;;;4754099;30;20036;-70
2021/03/31 07:52:19;;;;;;;;;;;16.20;55.80;;;;;;4754228;30;20037;-70
2021/03/31 07:54:45;;;;;;;33.55;11.93;;;16.40;55.10;;;;;;4754647;30;20024;-69
2021/03/31 07:57:24;;;;;;;22.52;10.40;;;16.40;55.20;;;;;;4749741;30;20028;-69
2021/03/31 07:59:51;;;;;;;24.70;11.32;;;16.50;54.80;;;;;;4766073;30;20044;-69
2021/03/31 08:02:17;;;;;;;26.13;10.93;;;16.60;55.30;;;;;;4749766;30;20139;-70
2021/03/31 08:04:43;;;;;;;28.23;13.15;;;16.70;54.70;;;;;;4752482;30;20025;-69
2021/03/31 08:07:22;;;;;;;30.05;13.10;;;16.80;53.30;;;;;;4749394;30;20418;-69
2021/03/31 08:09:49;;;;;;;27.40;11.65;;;16.80;53.80;;;;;;4768104;30;20051;-69
2021/03/31 08:12:41;;;;;;;34.65;11.93;;;16.90;53.20;;;;;;4741838;30;20036;-69
2021/03/31 08:15:07;;;;;;;38.25;13.82;;;17.00;53.60;;;;;;4775861;30;20309;-69
2021/03/31 08:17:34;;;;;;;33.58;13.43;;;17.10;52.90;;;;;;4765786;30;20354;-69
2021/03/31 08:20:00;;;;;;;46.30;14.88;;;17.20;51.90;;;;;;4768705;30;20167;-69
2021/03/31 08:22:35;;;;;;;27.58;13.50;;;17.30;52.40;;;;;;4764501;30;20059;-69
2021/03/31 08:25:16;;;;;;;31.55;13.52;;;17.40;51.40;;;;;;4774166;30;20089;-69
2021/03/31 08:27:54;;;;;;;29.42;14.60;;;17.50;51.00;;;;;;4773223;30;20089;-69
2021/03/31 08:30:20;;;;;;;32.15;13.82;;;17.50;51.70;;;;;;4769857;30;20050;-68
2021/03/31 08:32:46;;;;;;;31.42;13.32;;;17.70;51.50;;;;;;4763957;30;20323;-69
2021/03/31 08:35:12;;;;;;;34.40;15.45;;;17.80;51.80;;;;;;4766090;30;20044;-69
2021/03/31 08:37:38;;;;;;;30.17;13.68;;;17.90;51.60;;;;;;4765659;30;20197;-69
2021/03/31 08:40:06;;;;;;;30.80;13.18;;;17.90;51.50;;;;;;4770440;30;20082;-68
2021/03/31 08:42:33;;;;;;;33.10;12.93;;;18.00;51.90;;;;;;4769208;30;20031;-69
2021/03/31 08:45:03;;;;;;;29.73;14.18;;;18.10;51.90;;;;;;4770214;30;20334;-68
2021/03/31 08:47:34;;;;;;;33.47;15.35;;;18.20;51.30;;;;;;4758152;30;20453;-69
2021/03/31 08:50:02;;;;;;;39.70;16.88;;;18.30;51.30;;;;;;4762299;30;20358;-69
2021/03/31 08:52:35;;;;;;;32.50;15.10;;;18.50;50.10;;;;;;4753434;30;20052;-71
2021/03/31 08:55:05;;;;;;;33.75;15.88;;;18.50;49.50;;;;;;4753155;30;20208;-71
2021/03/31 08:57:31;;;;;;;36.42;16.27;;;18.60;50.10;;;;;;4752397;30;20068;-72
2021/03/31 08:59:59;;;;;;;47.58;16.50;;;18.70;49.10;;;;;;4754716;30;20323;-71
2021/03/31 09:02:31;;;;;;;33.25;15.35;;;18.90;49.80;;;;;;4753811;30;20056;-72
2021/03/31 09:04:58;;;;;;;38.20;14.55;;;19.00;49.00;;;;;;4761815;30;20066;-71
2021/03/31 09:07:24;;;;;;;;;;;19.10;48.10;;;;;;4752738;30;20033;-71
2021/03/31 09:09:50;;;;;;;32.70;14.80;;;19.30;47.90;;;;;;4757973;30;19933;-71
2021/03/31 09:12:21;;;;;;;35.05;15.52;;;19.50;47.90;;;;;;4759036;30;20046;-72
2021/03/31 09:14:55;;;;;;;33.65;14.60;;;19.60;48.30;;;;;;4748072;30;20091;-72
2021/03/31 09:17:22;;;;;;;40.15;15.40;;;19.80;46.80;;;;;;4755418;30;20043;-70
2021/03/31 09:19:50;;;;;;;;;;;19.90;46.50;;;;;;4768706;30;20040;-71
2021/03/31 09:22:18;;;;;;;29.67;14.20;;;20.10;46.10;;;;;;4767006;30;19910;-72
2021/03/31 09:24:47;;;;;;;40.22;15.18;;;20.40;46.70;;;;;;4750161;30;20035;-71
2021/03/31 09:27:18;;;;;;;28.63;15.02;;;20.80;45.80;;;;;;4750339;30;20305;-73
2021/03/31 09:29:46;;;;;;;31.92;14.23;;;21.60;45.80;;;;;;4756802;30;20039;-72
2021/03/31 09:32:28;;;;;;;25.13;12.93;;;22.60;43.80;;;;;;4748759;30;20024;-73
2021/03/31 09:34:54;;;;;;;35.97;15.40;;;23.60;41.00;;;;;;4757730;30;20063;-72
2021/03/31 09:37:19;;;;;;;33.60;15.10;;;24.70;39.10;;;;;;4771663;30;20037;-73
2021/03/31 09:39:49;;;;;;;38.63;15.15;;;25.50;37.00;;;;;;4761703;30;20040;-73
2021/03/31 09:42:17;;;;;;;28.13;13.73;;;25.90;35.20;;;;;;4750403;30;20033;-74
2021/03/31 09:44:43;;;;;;;28.65;14.32;;;26.60;36.00;;;;;;4752234;30;20313;-73
2021/03/31 09:47:10;;;;;;;25.77;15.33;;;27.10;34.90;;;;;;4765614;30;20043;-72
2021/03/31 09:49:36;;;;;;;31.05;15.07;;;27.30;33.40;;;;;;4751552;30;20303;-72
2021/03/31 09:52:04;;;;;;;27.98;14.93;;;27.90;33.60;;;;;;4771728;30;20043;-73
2021/03/31 09:54:31;;;;;;;27.95;13.85;;;27.90;31.50;;;;;;4757568;30;20328;-72
2021/03/31 09:56:57;;;;;;;25.88;15.23;;;28.00;31.80;;;;;;4759412;30;20040;-72
2021/03/31 09:59:25;;;;;;;30.60;15.27;;;28.60;31.10;;;;;;4744703;30;20036;-72
2021/03/31 10:05:24;;;;;;;27.98;15.27;;;29.30;29.40;;;;;;4750011;30;20039;-71
2021/03/31 10:08:20;;;;;;;26.13;15.63;;;30.00;29.90;;;;;;4758774;30;20074;-72
2021/03/31 10:10:53;;;;;;;42.47;16.23;;;30.20;30.20;;;;;;4754214;30;20040;-71
2021/03/31 10:13:21;;;;;;;25.92;14.55;;;30.60;28.90;;;;;;4755606;30;20031;-72
2021/03/31 10:16:00;;;;;;;28.02;16.83;;;30.80;29.20;;;;;;4746351;30;20052;-72
2021/03/31 10:18:32;;;;;;;27.00;14.68;;;30.90;28.20;;;;;;4748072;30;20058;-72
2021/03/31 10:21:04;;;;;;;31.25;16.92;;;31.30;29.10;;;;;;4751636;30;20099;-73
2021/03/31 10:23:37;;;;;;;31.38;15.57;;;31.30;27.50;;;;;;4750322;30;20139;-72
2021/03/31 10:26:26;;;;;;;29.48;15.63;;;31.40;28.10;;;;;;4751072;30;20051;-72
2021/03/31 10:29:00;;;;;;;31.85;16.55;;;31.50;27.90;;;;;;4746229;30;20263;-72
2021/03/31 10:31:44;;;;;;;27.27;14.98;;;31.90;28.10;;;;;;4735400;30;20134;-72
2021/03/31 10:34:10;;;;;;;28.98;14.80;;;32.10;28.00;;;;;;4754018;30;20048;-72
2021/03/31 10:50:05;;;;;;;27.20;15.57;;;33.30;26.40;;;;;;4752848;30;20314;-75
2021/03/31 10:52:36;;;;;;;26.98;13.93;;;33.10;27.00;;;;;;4756793;30;20036;-75
2021/03/31 10:55:01;;;;;;;25.45;16.15;;;33.40;26.90;;;;;;4760627;30;20032;-74
2021/03/31 10:57:27;;;;;;;28.48;16.15;;;33.70;25.90;;;;;;4759702;30;20028;-74
2021/03/31 10:59:53;;;;;;;30.00;17.02;;;33.90;25.50;;;;;;4766891;30;20062;-73
2021/03/31 11:02:19;;;;;;;26.57;15.80;;;34.20;25.70;;;;;;4753860;30;20040;-75
2021/03/31 11:04:45;;;;;;;21.88;14.93;;;34.50;25.20;;;;;;4740462;30;20385;-75
2021/03/31 11:07:11;;;;;;;26.65;14.90;;;34.70;25.80;;;;;;4759250;30;20107;-74
2021/03/31 11:09:40;;;;;;;28.73;14.30;;;34.70;25.20;;;;;;4751983;30;20216;-74
2021/03/31 11:12:07;;;;;;;28.70;16.60;;;35.00;25.20;;;;;;4751155;30;20032;-74
2021/03/31 11:14:33;;;;;;;;;;;34.70;25.30;;;;;;4751638;30;20078;-74
2021/03/31 11:17:03;;;;;;;29.65;17.70;;;34.80;24.80;;;;;;4770580;30;19910;-74
2021/03/31 11:19:50;;;;;;;27.13;15.50;;;34.60;24.70;;;;;;4754783;30;20346;-74
2021/03/31 11:27:38;;;;;;;26.02;14.52;;;34.00;25.20;;;;;;4754362;30;20335;-74
2021/03/31 11:30:08;;;;;;;27.98;15.20;;;34.00;25.70;;;;;;4754296;30;20066;-74
2021/03/31 11:32:34;;;;;;;29.10;14.13;;;34.00;25.40;;;;;;4755290;30;20035;-74
2021/03/31 11:35:00;;;;;;;25.27;15.45;;;33.60;25.80;;;;;;4767588;30;20278;-71
2021/03/31 11:37:25;;;;;;;23.13;14.10;;;34.10;25.80;;;;;;4754271;30;20028;-71
2021/03/31 11:39:51;;;;;;;35.97;15.83;;;34.10;25.80;;;;;;4753277;30;20350;-71
2021/03/31 11:42:17;;;;;;;25.47;14.17;;;34.00;25.40;;;;;;4757423;30;20511;-72
2021/03/31 11:44:43;;;;;;;;;;;34.10;25.70;;;;;;4766671;30;20219;-72
2021/03/31 11:47:09;;;;;;;;;;;34.50;26.00;;;;;;4755558;30;19926;-71
2021/03/31 11:49:35;;;;;;;19.67;11.93;;;34.50;25.90;;;;;;4766117;30;20229;-72
2021/03/31 11:52:00;;;;;;;24.23;14.17;;;34.20;25.90;;;;;;4754651;30;20392;-72
2021/03/31 11:54:26;;;;;;;27.47;14.00;;;34.50;25.90;;;;;;4758697;30;20375;-72
2021/03/31 11:56:52;;;;;;;27.20;13.40;;;34.50;25.90;;;;;;4763505;30;20039;-72
2021/03/31 11:59:18;;;;;;;19.87;12.47;;;34.60;26.10;;;;;;4749288;30;20051;-72
2021/03/31 12:01:43;;;;;;;23.20;12.83;;;34.80;25.70;;;;;;4750538;30;20040;-72
2021/03/31 12:04:10;;;;;;;21.73;12.77;;;34.60;25.20;;;;;;4768408;30;20342;-72
2021/03/31 12:06:36;;;;;;;15.95;11.20;;;34.20;25.70;;;;;;4752894;30;20086;-72
2021/03/31 12:09:06;;;;;;;21.25;13.50;;;34.50;25.80;;;;;;4752976;30;20044;-71
2021/03/31 12:11:32;;;;;;;27.60;13.60;;;34.60;25.90;;;;;;4746361;30;20062;-71
2021/03/31 12:13:57;;;;;;;18.10;13.10;;;34.70;25.30;;;;;;4748083;30;20060;-72
2021/03/31 12:16:23;;;;;;;57.20;13.50;;;34.60;25.60;;;;;;4749632;30;20375;-71
2021/03/31 12:18:49;;;;;;;52.67;13.90;;;34.60;25.80;;;;;;4750675;30;20067;-71
2021/03/31 12:21:15;;;;;;;30.40;13.30;;;34.80;25.90;;;;;;4769144;30;20039;-71
2021/03/31 12:23:40;;;;;;;34.67;13.57;;;34.40;25.40;;;;;;4746852;30;20028;-71
2021/03/31 12:26:07;;;;;;;32.15;13.85;;;34.20;25.90;;;;;;4752537;30;20040;-71
2021/03/31 12:28:36;;;;;;;21.95;12.70;;;34.20;25.60;;;;;;4754460;30;20060;-70
2021/03/31 12:31:08;;;;;;;20.50;12.55;;;33.80;25.80;;;;;;4767549;30;20035;-70
2021/03/31 12:33:35;;;;;;;30.02;12.50;;;33.70;26.20;;;;;;4753754;30;20074;-71
2021/03/31 12:36:02;;;;;;;18.10;11.38;;;33.20;26.70;;;;;;4766042;30;20084;-71
2021/03/31 12:38:28;;;;;;;30.13;12.45;;;32.50;26.20;;;;;;4750947;30;20029;-70
2021/03/31 12:40:54;;;;;;;28.73;13.67;;;32.00;27.30;;;;;;4767956;30;20051;-70
2021/03/31 12:43:20;;;;;;;22.77;11.37;;;31.30;27.60;;;;;;4766330;30;20043;-72
2021/03/31 12:45:46;;;;;;;;;;;30.80;28.40;;;;;;4756948;30;20059;-72
2021/03/31 12:48:12;;;;;;;20.25;11.57;;;30.40;28.60;;;;;;4749302;30;19964;-71
2021/03/31 12:50:39;;;;;;;24.07;10.17;;;29.90;29.00;;;;;;4764234;30;20032;-71
2021/03/31 12:53:17;;;;;;;24.35;10.75;;;29.60;29.50;;;;;;4748503;30;20040;-72
2021/03/31 12:55:44;;;;;;;26.60;11.32;;;29.30;30.10;;;;;;4765438;30;20099;-71
2021/03/31 12:58:15;;;;;;;21.02;10.45;;;28.90;30.20;;;;;;4751371;30;20040;-71
2021/03/31 13:00:42;;;;;;;21.25;10.85;;;28.70;30.90;;;;;;4751998;30;20055;-71
2021/03/31 13:03:08;;;;;;;22.55;11.05;;;28.50;31.20;;;;;;4751739;30;20052;-71
2021/03/31 13:05:36;;;;;;;23.60;9.93;;;28.30;31.50;;;;;;4759390;30;20349;-71
2021/03/31 13:08:02;;;;;;;17.00;9.75;;;28.20;31.70;;;;;;4755167;30;20103;-72
2021/03/31 13:10:28;;;;;;;19.88;8.98;;;28.20;32.20;;;;;;4753888;30;20033;-71
2021/03/31 13:13:00;;;;;;;18.40;9.50;;;28.10;32.50;;;;;;4747092;30;20040;-72
2021/03/31 13:23:10;;;;;;;15.00;7.63;;;27.80;31.70;;;;;;4753986;30;20040;-71
2021/03/31 13:25:40;;;;;;;16.92;7.55;;;27.70;31.80;;;;;;4751777;30;20025;-71
2021/03/31 13:30:37;;;;;;;22.83;8.88;;;27.60;32.10;;;;;;4759212;30;20028;-71
2021/03/31 13:36:11;;;;;;;18.27;8.93;;;27.50;33.00;;;;;;4782335;30;20051;-71
2021/03/31 13:38:53;;;;;;;20.17;8.15;;;27.40;32.50;;;;;;4779563;30;20077;-71
2021/03/31 13:41:19;;;;;;;16.77;7.78;;;27.40;32.90;;;;;;4785001;30;20051;-71
2021/03/31 13:43:44;;;;;;;23.65;8.45;;;27.20;33.10;;;;;;4770644;30;20081;-71
2021/03/31 13:46:11;;;;;;;18.38;7.05;;;27.00;33.00;;;;;;4780276;30;20275;-71
2021/03/31 13:51:05;;;;;;;21.80;8.65;;;26.90;33.50;;;;;;4784453;30;20075;-71
2021/03/31 13:53:32;;;;;;;15.98;7.70;;;26.80;33.80;;;;;;4782064;30;20066;-72
2021/03/31 13:56:02;;;;;;;17.98;8.13;;;26.70;34.50;;;;;;4780115;30;20107;-71
2021/03/31 13:58:28;;;;;;;13.93;6.88;;;26.70;34.20;;;;;;4780592;30;20027;-71
2021/03/31 14:00:54;;;;;;;14.70;6.95;;;26.70;34.30;;;;;;4780031;30;20040;-71
2021/03/31 14:03:19;;;;;;;20.15;6.82;;;26.70;34.60;;;;;;4778471;30;20120;-71
2021/03/31 14:05:45;;;;;;;16.23;6.70;;;26.70;33.80;;;;;;4762059;30;20059;-71
2021/03/31 14:08:11;;;;;;;18.38;6.75;;;26.60;34.20;;;;;;4778622;30;20055;-71
2021/03/31 14:10:37;;;;;;;15.27;7.82;;;26.60;34.30;;;;;;4763501;30;20068;-71
2021/03/31 14:13:05;;;;;;;17.10;7.85;;;26.50;33.70;;;;;;4775472;30;20040;-71
2021/03/31 14:15:31;;;;;;;18.23;6.60;;;26.50;34.20;;;;;;4750876;30;20040;-71
2021/03/31 14:17:56;;;;;;;14.95;6.57;;;26.40;34.70;;;;;;4756790;30;20028;-71
2021/03/31 14:20:22;;;;;;;18.70;6.53;;;26.40;34.20;;;;;;4754942;30;20089;-71
2021/03/31 14:22:48;;;;;;;18.23;6.50;;;26.40;33.80;;;;;;4758015;30;20032;-71
2021/03/31 14:25:18;;;;;;;15.67;5.53;;;26.30;34.10;;;;;;4758247;30;20105;-71
2021/03/31 14:27:44;;;;;;;14.43;5.97;;;26.30;34.20;;;;;;4769181;30;20028;-70
2021/03/31 14:30:15;;;;;;;13.23;5.63;;;26.40;34.60;;;;;;4768560;30;20048;-70
2021/03/31 14:32:41;;;;;;;13.13;5.07;;;26.40;34.40;;;;;;4748261;30;20043;-69
2021/03/31 14:35:07;;;;;;;15.98;5.60;;;26.30;34.50;;;;;;4751707;30;20040;-69
2021/03/31 14:37:34;;;;;;;17.98;5.78;;;26.30;34.50;;;;;;4762089;30;20040;-69
2021/03/31 14:40:01;;;;;;;10.02;4.72;;;26.20;34.70;;;;;;4750834;30;20032;-70
2021/03/31 14:42:27;;;;;;;14.02;5.00;;;26.20;34.40;;;;;;4754489;30;20099;-69
2021/03/31 14:44:53;;;;;;;16.17;6.40;;;26.30;34.70;;;;;;4750664;30;20059;-70
2021/03/31 14:47:19;;;;;;;14.82;6.07;;;26.30;34.10;;;;;;4755699;30;20064;-70
2021/03/31 14:49:45;;;;;;;13.23;6.25;;;26.30;34.70;;;;;;4761624;30;20142;-71
2021/03/31 15:00:08;;;;;;;14.32;5.38;;;26.10;34.00;;;;;;4747506;30;20092;-71
2021/03/31 15:02:34;;;;;;;11.60;5.43;;;26.20;34.50;;;;;;4752356;30;20039;-70
2021/03/31 15:05:00;;;;;;;15.05;4.47;;;26.10;34.20;;;;;;4745198;30;20036;-70
2021/03/31 15:07:26;;;;;;;13.02;5.65;;;26.10;34.90;;;;;;4744598;30;20112;-70
2021/03/31 15:09:51;;;;;;;13.27;5.22;;;26.00;34.90;;;;;;4743604;30;20212;-70
2021/03/31 15:12:17;;;;;;;13.05;4.47;;;26.00;34.60;;;;;;4751079;30;20358;-71
2021/03/31 15:14:43;;;;;;;15.32;6.28;;;26.00;35.40;;;;;;4743495;30;20112;-70
2021/03/31 15:17:09;;;;;;;12.48;5.00;;;25.90;34.60;;;;;;4750708;30;20122;-70
2021/03/31 15:24:53;;;;;;;11.35;4.28;;;25.90;34.60;;;;;;4783688;29;20184;-72
2021/03/31 15:27:19;;;;;;;14.45;4.65;;;25.70;34.50;;;;;;4798278;29;20039;-70
2021/03/31 15:29:46;;;;;;;9.18;4.72;;;25.60;34.60;;;;;;4789740;29;20076;-70
2021/03/31 15:32:12;;;;;;;12.40;4.90;;;25.60;34.80;;;;;;4787833;29;20039;-70
2021/03/31 15:34:38;;;;;;;19.50;5.85;;;25.50;34.90;;;;;;4787314;29;20103;-70
2021/03/31 15:37:04;;;;;;;18.70;5.70;;;25.50;35.00;;;;;;4794443;29;20040;-71
2021/03/31 15:39:30;;;;;;;12.32;5.38;;;25.40;35.10;;;;;;4779901;29;20063;-71
2021/03/31 15:41:59;;;;;;;12.45;5.85;;;25.40;35.20;;;;;;4785887;29;20259;-71
2021/03/31 15:44:27;;;;;;;11.10;5.13;;;25.30;35.20;;;;;;4781682;29;20031;-70
2021/03/31 15:47:01;;;;;;;11.60;4.75;;;25.20;35.60;;;;;;4782113;30;20043;-71
2021/03/31 15:49:27;;;;;;;9.55;4.90;;;25.20;35.60;;;;;;4786090;29;20036;-71
2021/03/31 15:51:53;;;;;;;7.17;4.57;;;25.20;36.00;;;;;;4777818;30;20063;-70
2021/03/31 15:54:20;;;;;;;9.55;4.45;;;25.10;35.90;;;;;;4776167;30;20040;-70
2021/03/31 15:56:46;;;;;;;12.85;5.50;;;25.00;35.60;;;;;;4791053;29;20027;-70
2021/03/31 15:59:12;;;;;;;10.68;5.32;;;25.00;35.70;;;;;;4768598;29;20119;-70
2021/03/31 16:01:37;;;;;;;10.95;5.38;;;24.90;36.00;;;;;;4743185;30;20024;-70
2021/03/31 16:04:05;;;;;;;11.98;5.68;;;24.90;35.80;;;;;;4755556;30;20607;-71
2021/03/31 16:09:16;;;;;;;13.25;4.47;;;24.80;35.60;;;;;;4745091;30;20029;-70
2021/03/31 16:11:41;;;;;;;14.05;4.28;;;24.70;36.00;;;;;;4749626;30;20052;-70
2021/03/31 16:14:08;;;;;;;11.73;4.65;;;24.70;35.70;;;;;;4747745;30;20037;-70
2021/03/31 16:16:34;;;;;;;12.63;4.25;;;24.70;36.00;;;;;;4753315;30;20054;-70
2021/03/31 16:19:00;;;;;;;9.70;3.78;;;24.60;36.30;;;;;;4747598;30;20264;-71
2021/03/31 16:21:26;;;;;;;9.87;3.67;;;24.50;36.40;;;;;;4744677;30;20037;-70
2021/03/31 16:23:52;;;;;;;9.33;3.37;;;24.40;36.50;;;;;;4752180;30;20331;-71
2021/03/31 16:26:18;;;;;;;6.47;4.05;;;24.40;36.90;;;;;;4763192;30;20108;-71
2021/03/31 16:29:05;;;;;;;11.67;3.67;;;24.30;37.00;;;;;;4760411;30;20040;-71